sensor_id;sensor_type;location;lat;lon;timestamp;P1;durP1;ratioP1;P2;durP2;ratioP2
66874;SDS011;53784;52.630;4.896;2022-07-01T00:02:23;0.15;;;0.15;;
66874;SDS011;53784;52.630;4.896;2022-07-01T00:04:49;0.00;;;0.00;;
66874;SDS011;53784;52.630;4.896;2022-07-01T00:07:15;0.00;;;0.00;;
66874;SDS011;53784;52.630;4.896;2022-07-01T00:09:41;0.00;;;0.00;;
66874;SDS011;53784;52.630;4.896;2022-07-01T00:12:07;0.00;;;0.00;;
66874;SDS011;53784;52.630;4.896;2022-07-01T00:14:32;0.00;;;0.00;;
66874;SDS011;53784;52.630;4.896;2022-07-01T00:16:57;0.00;;;0.00;;
66874;SDS011;53784;52.630;4.896;2022-07-01T00:19:23;0.10;;;0.10;;
66874;SDS011;53784;52.630;4.896;2022-07-01T00:21:49;0.00;;;0.00;;
66874;SDS011;53784;52.630;4.896;2022-07-01T00:24:15;0.22;;;0.10;;
66874;SDS011;53784;52.630;4.896;2022-07-01T00:26:40;0.00;;;0.00;;
66874;SDS011;53784;52.630;4.896;2022-07-01T00:29:06;0.00;;;0.00;;
66874;SDS011;53784;52.630;4.896;2022-07-01T00:31:31;0.00;;;0.00;;
66874;SDS011;53784;52.630;4.896;2022-07-01T00:33:56;0.00;;;0.00;;
66874;SDS011;53784;52.630;4.896;2022-07-01T00:36:22;0.10;;;0.10;;
66874;SDS011;53784;52.630;4.896;2022-07-01T00:38:47;0.00;;;0.00;;
66874;SDS011;53784;52.630;4.896;2022-07-01T00:41:12;0.00;;;0.00;;
66874;SDS011;53784;52.630;4.896;2022-07-01T00:43:38;0.10;;;0.10;;
66874;SDS011;53784;52.630;4.896;2022-07-01T00:46:04;0.00;;;0.00;;
66874;SDS011;53784;52.630;4.896;2022-07-01T00:48:31;0.00;;;0.00;;
66874;SDS011;53784;52.630;4.896;2022-07-01T00:50:57;0.00;;;0.00;;
66874;SDS011;53784;52.630;4.896;2022-07-01T00:53:22;0.03;;;0.03;;
66874;SDS011;53784;52.630;4.896;2022-07-01T00:55:48;0.00;;;0.00;;
66874;SDS011;53784;52.630;4.896;2022-07-01T00:58:14;0.00;;;0.00;;
66874;SDS011;53784;52.630;4.896;2022-07-01T01:00:39;0.10;;;0.10;;
66874;SDS011;53784;52.630;4.896;2022-07-01T01:03:05;0.00;;;0.00;;
66874;SDS011;53784;52.630;4.896;2022-07-01T01:05:32;0.20;;;0.20;;
66874;SDS011;53784;52.630;4.896;2022-07-01T01:07:58;0.10;;;0.10;;
66874;SDS011;53784;52.630;4.896;2022-07-01T01:10:24;0.00;;;0.00;;
66874;SDS011;53784;52.630;4.896;2022-07-01T01:12:50;0.10;;;0.10;;
66874;SDS011;53784;52.630;4.896;2022-07-01T01:15:18;0.05;;;0.05;;
66874;SDS011;53784;52.630;4.896;2022-07-01T01:17:44;0.08;;;0.08;;
66874;SDS011;53784;52.630;4.896;2022-07-01T01:20:17;0.00;;;0.00;;
66874;SDS011;53784;52.630;4.896;2022-07-01T01:22:44;0.00;;;0.00;;
66874;SDS011;53784;52.630;4.896;2022-07-01T01:25:09;0.10;;;0.10;;
66874;SDS011;53784;52.630;4.896;2022-07-01T01:27:35;0.08;;;0.08;;
66874;SDS011;53784;52.630;4.896;2022-07-01T01:30:02;0.10;;;0.10;;
66874;SDS011;53784;52.630;4.896;2022-07-01T01:32:30;0.10;;;0.10;;
66874;SDS011;53784;52.630;4.896;2022-07-01T01:34:55;0.00;;;0.00;;
66874;SDS011;53784;52.630;4.896;2022-07-01T01:37:20;0.00;;;0.00;;
66874;SDS011;53784;52.630;4.896;2022-07-01T01:39:45;0.10;;;0.10;;
66874;SDS011;53784;52.630;4.896;2022-07-01T01:42:11;0.10;;;0.10;;
66874;SDS011;53784;52.630;4.896;2022-07-01T01:44:36;0.00;;;0.00;;
66874;SDS011;53784;52.630;4.896;2022-07-01T01:47:02;0.17;;;0.17;;
66874;SDS011;53784;52.630;4.896;2022-07-01T01:49:27;0.15;;;0.15;;
66874;SDS011;53784;52.630;4.896;2022-07-01T01:51:53;0.10;;;0.10;;
66874;SDS011;53784;52.630;4.896;2022-07-01T01:54:19;0.00;;;0.00;;
66874;SDS011;53784;52.630;4.896;2022-07-01T01:56:44;0.10;;;0.10;;
66874;SDS011;53784;52.630;4.896;2022-07-01T01:59:10;0.10;;;0.10;;
66874;SDS011;53784;52.630;4.896;2022-07-01T02:01:37;0.05;;;0.05;;
66874;SDS011;53784;52.630;4.896;2022-07-01T02:04:02;0.10;;;0.10;;
66874;SDS011;53784;52.630;4.896;2022-07-01T02:06:28;0.20;;;0.10;;
66874;SDS011;53784;52.630;4.896;2022-07-01T02:08:53;0.00;;;0.00;;
66874;SDS011;53784;52.630;4.896;2022-07-01T02:11:18;0.00;;;0.00;;
66874;SDS011;53784;52.630;4.896;2022-07-01T02:13:44;0.10;;;0.10;;
66874;SDS011;53784;52.630;4.896;2022-07-01T02:16:09;0.10;;;0.10;;
66874;SDS011;53784;52.630;4.896;2022-07-01T02:18:35;0.00;;;0.00;;
66874;SDS011;53784;52.630;4.896;2022-07-01T02:21:00;0.15;;;0.15;;
66874;SDS011;53784;52.630;4.896;2022-07-01T02:23:26;0.10;;;0.10;;
66874;SDS011;53784;52.630;4.896;2022-07-01T02:25:51;0.17;;;0.15;;
66874;SDS011;53784;52.630;4.896;2022-07-01T02:28:16;0.00;;;0.00;;
66874;SDS011;53784;52.630;4.896;2022-07-01T02:30:42;0.10;;;0.10;;
66874;SDS011;53784;52.630;4.896;2022-07-01T02:33:08;0.00;;;0.00;;
66874;SDS011;53784;52.630;4.896;2022-07-01T02:35:34;0.10;;;0.10;;
66874;SDS011;53784;52.630;4.896;2022-07-01T02:38:00;0.30;;;0.28;;
66874;SDS011;53784;52.630;4.896;2022-07-01T02:40:26;0.10;;;0.10;;
66874;SDS011;53784;52.630;4.896;2022-07-01T02:42:51;0.10;;;0.10;;
66874;SDS011;53784;52.630;4.896;2022-07-01T02:45:17;0.10;;;0.10;;
66874;SDS011;53784;52.630;4.896;2022-07-01T02:47:42;0.30;;;0.20;;
66874;SDS011;53784;52.630;4.896;2022-07-01T02:50:10;0.40;;;0.40;;
66874;SDS011;53784;52.630;4.896;2022-07-01T02:52:36;0.10;;;0.10;;
66874;SDS011;53784;52.630;4.896;2022-07-01T02:55:03;0.55;;;0.43;;
66874;SDS011;53784;52.630;4.896;2022-07-01T02:57:30;0.10;;;0.10;;
66874;SDS011;53784;52.630;4.896;2022-07-01T02:59:55;0.20;;;0.20;;
66874;SDS011;53784;52.630;4.896;2022-07-01T03:02:20;0.10;;;0.10;;
66874;SDS011;53784;52.630;4.896;2022-07-01T03:04:46;0.00;;;0.00;;
66874;SDS011;53784;52.630;4.896;2022-07-01T03:07:12;0.60;;;0.30;;
66874;SDS011;53784;52.630;4.896;2022-07-01T03:09:38;0.00;;;0.00;;
66874;SDS011;53784;52.630;4.896;2022-07-01T03:12:05;0.10;;;0.10;;
66874;SDS011;53784;52.630;4.896;2022-07-01T03:14:49;0.20;;;0.13;;
66874;SDS011;53784;52.630;4.896;2022-07-01T03:17:22;0.30;;;0.17;;
66874;SDS011;53784;52.630;4.896;2022-07-01T03:19:48;0.47;;;0.30;;
66874;SDS011;53784;52.630;4.896;2022-07-01T03:22:14;0.20;;;0.20;;
66874;SDS011;53784;52.630;4.896;2022-07-01T03:24:41;0.10;;;0.10;;
66874;SDS011;53784;52.630;4.896;2022-07-01T03:27:06;0.10;;;0.10;;
66874;SDS011;53784;52.630;4.896;2022-07-01T03:29:32;0.08;;;0.08;;
66874;SDS011;53784;52.630;4.896;2022-07-01T03:31:57;0.38;;;0.17;;
66874;SDS011;53784;52.630;4.896;2022-07-01T03:34:23;0.00;;;0.00;;
66874;SDS011;53784;52.630;4.896;2022-07-01T03:36:48;0.30;;;0.20;;
66874;SDS011;53784;52.630;4.896;2022-07-01T03:39:13;0.30;;;0.30;;
66874;SDS011;53784;52.630;4.896;2022-07-01T03:41:39;0.28;;;0.20;;
66874;SDS011;53784;52.630;4.896;2022-07-01T03:44:04;0.00;;;0.00;;
66874;SDS011;53784;52.630;4.896;2022-07-01T03:46:31;0.15;;;0.15;;
66874;SDS011;53784;52.630;4.896;2022-07-01T03:48:57;0.17;;;0.13;;
66874;SDS011;53784;52.630;4.896;2022-07-01T03:51:22;0.10;;;0.10;;
66874;SDS011;53784;52.630;4.896;2022-07-01T03:53:48;0.10;;;0.10;;
66874;SDS011;53784;52.630;4.896;2022-07-01T03:56:31;0.10;;;0.10;;
66874;SDS011;53784;52.630;4.896;2022-07-01T03:58:57;0.08;;;0.08;;
66874;SDS011;53784;52.630;4.896;2022-07-01T04:01:22;0.20;;;0.20;;
66874;SDS011;53784;52.630;4.896;2022-07-01T04:03:47;0.30;;;0.20;;
66874;SDS011;53784;52.630;4.896;2022-07-01T04:06:13;0.10;;;0.10;;
66874;SDS011;53784;52.630;4.896;2022-07-01T04:08:38;0.10;;;0.10;;
66874;SDS011;53784;52.630;4.896;2022-07-01T04:11:03;0.10;;;0.10;;
66874;SDS011;53784;52.630;4.896;2022-07-01T04:13:33;0.10;;;0.10;;
66874;SDS011;53784;52.630;4.896;2022-07-01T04:15:58;0.20;;;0.15;;
66874;SDS011;53784;52.630;4.896;2022-07-01T04:18:25;0.00;;;0.00;;
66874;SDS011;53784;52.630;4.896;2022-07-01T04:20:50;0.10;;;0.10;;
66874;SDS011;53784;52.630;4.896;2022-07-01T04:23:34;0.00;;;0.00;;
66874;SDS011;53784;52.630;4.896;2022-07-01T04:25:59;0.00;;;0.00;;
66874;SDS011;53784;52.630;4.896;2022-07-01T04:28:24;0.10;;;0.10;;
66874;SDS011;53784;52.630;4.896;2022-07-01T04:30:50;0.55;;;0.55;;
66874;SDS011;53784;52.630;4.896;2022-07-01T04:33:15;0.43;;;0.40;;
66874;SDS011;53784;52.630;4.896;2022-07-01T04:35:40;0.10;;;0.10;;
66874;SDS011;53784;52.630;4.896;2022-07-01T04:38:06;0.10;;;0.10;;
66874;SDS011;53784;52.630;4.896;2022-07-01T04:40:31;0.10;;;0.10;;
66874;SDS011;53784;52.630;4.896;2022-07-01T04:42:56;0.10;;;0.10;;
66874;SDS011;53784;52.630;4.896;2022-07-01T04:45:22;0.10;;;0.10;;
66874;SDS011;53784;52.630;4.896;2022-07-01T04:47:47;0.20;;;0.10;;
66874;SDS011;53784;52.630;4.896;2022-07-01T04:50:12;0.10;;;0.10;;
66874;SDS011;53784;52.630;4.896;2022-07-01T04:52:38;0.10;;;0.10;;
66874;SDS011;53784;52.630;4.896;2022-07-01T04:55:03;0.10;;;0.10;;
66874;SDS011;53784;52.630;4.896;2022-07-01T04:57:29;0.43;;;0.20;;
66874;SDS011;53784;52.630;4.896;2022-07-01T04:59:54;0.63;;;0.20;;
66874;SDS011;53784;52.630;4.896;2022-07-01T05:02:20;0.15;;;0.10;;
66874;SDS011;53784;52.630;4.896;2022-07-01T05:04:45;1.13;;;0.55;;
66874;SDS011;53784;52.630;4.896;2022-07-01T05:07:10;0.20;;;0.20;;
66874;SDS011;53784;52.630;4.896;2022-07-01T05:09:53;0.30;;;0.25;;
66874;SDS011;53784;52.630;4.896;2022-07-01T05:12:18;0.38;;;0.30;;
66874;SDS011;53784;52.630;4.896;2022-07-01T05:14:44;0.10;;;0.10;;
66874;SDS011;53784;52.630;4.896;2022-07-01T05:17:09;0.13;;;0.13;;
66874;SDS011;53784;52.630;4.896;2022-07-01T05:19:34;0.52;;;0.47;;
66874;SDS011;53784;52.630;4.896;2022-07-01T05:22:18;0.20;;;0.20;;
66874;SDS011;53784;52.630;4.896;2022-07-01T05:24:44;0.17;;;0.17;;
66874;SDS011;53784;52.630;4.896;2022-07-01T05:27:10;0.45;;;0.35;;
66874;SDS011;53784;52.630;4.896;2022-07-01T05:29:35;0.10;;;0.10;;
66874;SDS011;53784;52.630;4.896;2022-07-01T05:32:00;0.20;;;0.20;;
66874;SDS011;53784;52.630;4.896;2022-07-01T05:34:25;0.10;;;0.10;;
66874;SDS011;53784;52.630;4.896;2022-07-01T05:36:51;0.13;;;0.13;;
66874;SDS011;53784;52.630;4.896;2022-07-01T05:39:16;0.20;;;0.20;;
66874;SDS011;53784;52.630;4.896;2022-07-01T05:41:42;0.20;;;0.20;;
66874;SDS011;53784;52.630;4.896;2022-07-01T05:44:07;0.22;;;0.22;;
66874;SDS011;53784;52.630;4.896;2022-07-01T05:46:33;0.20;;;0.20;;
66874;SDS011;53784;52.630;4.896;2022-07-01T05:48:58;0.17;;;0.17;;
66874;SDS011;53784;52.630;4.896;2022-07-01T05:51:23;0.10;;;0.10;;
66874;SDS011;53784;52.630;4.896;2022-07-01T05:53:49;0.20;;;0.20;;
66874;SDS011;53784;52.630;4.896;2022-07-01T05:56:14;0.10;;;0.10;;
66874;SDS011;53784;52.630;4.896;2022-07-01T05:58:40;0.10;;;0.10;;
66874;SDS011;53784;52.630;4.896;2022-07-01T06:01:05;0.10;;;0.10;;
66874;SDS011;53784;52.630;4.896;2022-07-01T06:03:31;0.10;;;0.10;;
66874;SDS011;53784;52.630;4.896;2022-07-01T06:05:56;0.20;;;0.20;;
66874;SDS011;53784;52.630;4.896;2022-07-01T06:08:21;0.30;;;0.20;;
66874;SDS011;53784;52.630;4.896;2022-07-01T06:10:47;0.20;;;0.20;;
66874;SDS011;53784;52.630;4.896;2022-07-01T06:13:12;0.30;;;0.30;;
66874;SDS011;53784;52.630;4.896;2022-07-01T06:15:37;0.17;;;0.17;;
66874;SDS011;53784;52.630;4.896;2022-07-01T06:18:03;0.10;;;0.10;;
66874;SDS011;53784;52.630;4.896;2022-07-01T06:20:28;0.20;;;0.20;;
66874;SDS011;53784;52.630;4.896;2022-07-01T06:22:53;0.10;;;0.10;;
66874;SDS011;53784;52.630;4.896;2022-07-01T06:25:19;0.17;;;0.17;;
66874;SDS011;53784;52.630;4.896;2022-07-01T06:27:44;0.10;;;0.10;;
66874;SDS011;53784;52.630;4.896;2022-07-01T06:30:10;0.30;;;0.20;;
66874;SDS011;53784;52.630;4.896;2022-07-01T06:32:36;0.20;;;0.20;;
66874;SDS011;53784;52.630;4.896;2022-07-01T06:35:02;0.10;;;0.10;;
66874;SDS011;53784;52.630;4.896;2022-07-01T06:37:28;0.20;;;0.20;;
66874;SDS011;53784;52.630;4.896;2022-07-01T06:39:56;0.20;;;0.20;;
66874;SDS011;53784;52.630;4.896;2022-07-01T06:42:21;0.20;;;0.20;;
66874;SDS011;53784;52.630;4.896;2022-07-01T06:44:48;0.20;;;0.20;;
66874;SDS011;53784;52.630;4.896;2022-07-01T06:47:13;0.10;;;0.10;;
66874;SDS011;53784;52.630;4.896;2022-07-01T06:49:39;0.20;;;0.20;;
66874;SDS011;53784;52.630;4.896;2022-07-01T06:52:04;0.47;;;0.47;;
66874;SDS011;53784;52.630;4.896;2022-07-01T06:54:30;0.20;;;0.20;;
66874;SDS011;53784;52.630;4.896;2022-07-01T06:56:55;0.20;;;0.20;;
66874;SDS011;53784;52.630;4.896;2022-07-01T06:59:21;0.30;;;0.30;;
66874;SDS011;53784;52.630;4.896;2022-07-01T07:01:46;0.30;;;0.30;;
66874;SDS011;53784;52.630;4.896;2022-07-01T07:04:12;0.40;;;0.40;;
66874;SDS011;53784;52.630;4.896;2022-07-01T07:06:37;0.33;;;0.33;;
66874;SDS011;53784;52.630;4.896;2022-07-01T07:09:02;0.40;;;0.40;;
66874;SDS011;53784;52.630;4.896;2022-07-01T07:11:28;0.30;;;0.30;;
66874;SDS011;53784;52.630;4.896;2022-07-01T07:13:53;0.30;;;0.30;;
66874;SDS011;53784;52.630;4.896;2022-07-01T07:16:18;0.57;;;0.57;;
66874;SDS011;53784;52.630;4.896;2022-07-01T07:18:45;0.30;;;0.30;;
66874;SDS011;53784;52.630;4.896;2022-07-01T07:21:14;0.40;;;0.40;;
66874;SDS011;53784;52.630;4.896;2022-07-01T07:23:39;0.30;;;0.30;;
66874;SDS011;53784;52.630;4.896;2022-07-01T07:26:06;0.30;;;0.30;;
66874;SDS011;53784;52.630;4.896;2022-07-01T07:28:31;0.30;;;0.30;;
66874;SDS011;53784;52.630;4.896;2022-07-01T07:30:56;0.25;;;0.25;;
66874;SDS011;53784;52.630;4.896;2022-07-01T07:33:22;0.20;;;0.20;;
66874;SDS011;53784;52.630;4.896;2022-07-01T07:35:47;0.20;;;0.20;;
66874;SDS011;53784;52.630;4.896;2022-07-01T07:38:12;0.20;;;0.20;;
66874;SDS011;53784;52.630;4.896;2022-07-01T07:40:38;0.10;;;0.10;;
66874;SDS011;53784;52.630;4.896;2022-07-01T07:43:03;0.10;;;0.10;;
66874;SDS011;53784;52.630;4.896;2022-07-01T07:45:28;0.17;;;0.17;;
66874;SDS011;53784;52.630;4.896;2022-07-01T07:47:54;0.10;;;0.10;;
66874;SDS011;53784;52.630;4.896;2022-07-01T07:50:20;0.10;;;0.10;;
66874;SDS011;53784;52.630;4.896;2022-07-01T07:52:46;0.10;;;0.10;;
66874;SDS011;53784;52.630;4.896;2022-07-01T07:55:11;0.10;;;0.10;;
66874;SDS011;53784;52.630;4.896;2022-07-01T07:57:37;0.10;;;0.10;;
66874;SDS011;53784;52.630;4.896;2022-07-01T08:00:03;0.10;;;0.10;;
66874;SDS011;53784;52.630;4.896;2022-07-01T08:02:30;0.20;;;0.20;;
66874;SDS011;53784;52.630;4.896;2022-07-01T08:04:55;0.30;;;0.30;;
66874;SDS011;53784;52.630;4.896;2022-07-01T08:07:20;0.22;;;0.22;;
66874;SDS011;53784;52.630;4.896;2022-07-01T08:09:46;0.30;;;0.30;;
66874;SDS011;53784;52.630;4.896;2022-07-01T08:12:14;0.43;;;0.43;;
66874;SDS011;53784;52.630;4.896;2022-07-01T08:14:39;0.43;;;0.40;;
66874;SDS011;53784;52.630;4.896;2022-07-01T08:17:04;0.30;;;0.30;;
66874;SDS011;53784;52.630;4.896;2022-07-01T08:19:30;0.25;;;0.25;;
66874;SDS011;53784;52.630;4.896;2022-07-01T08:21:55;0.20;;;0.20;;
66874;SDS011;53784;52.630;4.896;2022-07-01T08:24:21;0.20;;;0.20;;
66874;SDS011;53784;52.630;4.896;2022-07-01T08:26:46;0.20;;;0.20;;
66874;SDS011;53784;52.630;4.896;2022-07-01T08:29:11;0.10;;;0.10;;
66874;SDS011;53784;52.630;4.896;2022-07-01T08:31:37;0.13;;;0.13;;
66874;SDS011;53784;52.630;4.896;2022-07-01T08:34:02;0.10;;;0.10;;
66874;SDS011;53784;52.630;4.896;2022-07-01T08:36:28;0.10;;;0.10;;
66874;SDS011;53784;52.630;4.896;2022-07-01T08:38:53;0.10;;;0.10;;
66874;SDS011;53784;52.630;4.896;2022-07-01T08:41:18;0.17;;;0.17;;
66874;SDS011;53784;52.630;4.896;2022-07-01T08:43:44;0.28;;;0.28;;
66874;SDS011;53784;52.630;4.896;2022-07-01T08:46:10;0.30;;;0.30;;
66874;SDS011;53784;52.630;4.896;2022-07-01T08:48:35;2.60;;;0.30;;
66874;SDS011;53784;52.630;4.896;2022-07-01T08:51:01;0.30;;;0.30;;
66874;SDS011;53784;52.630;4.896;2022-07-01T08:53:30;0.40;;;0.40;;
66874;SDS011;53784;52.630;4.896;2022-07-01T08:55:57;0.50;;;0.40;;
66874;SDS011;53784;52.630;4.896;2022-07-01T08:58:40;0.50;;;0.40;;
66874;SDS011;53784;52.630;4.896;2022-07-01T09:01:13;0.60;;;0.50;;
66874;SDS011;53784;52.630;4.896;2022-07-01T09:03:39;0.90;;;0.60;;
66874;SDS011;53784;52.630;4.896;2022-07-01T09:06:10;1.30;;;0.70;;
66874;SDS011;53784;52.630;4.896;2022-07-01T09:08:38;1.00;;;0.60;;
66874;SDS011;53784;52.630;4.896;2022-07-01T09:11:19;0.70;;;0.50;;
66874;SDS011;53784;52.630;4.896;2022-07-01T09:14:04;0.70;;;0.50;;
66874;SDS011;53784;52.630;4.896;2022-07-01T09:16:46;0.80;;;0.50;;
66874;SDS011;53784;52.630;4.896;2022-07-01T09:19:14;0.60;;;0.50;;
66874;SDS011;53784;52.630;4.896;2022-07-01T09:21:40;0.98;;;0.57;;
66874;SDS011;53784;52.630;4.896;2022-07-01T09:24:22;1.10;;;0.68;;
66874;SDS011;53784;52.630;4.896;2022-07-01T09:26:54;1.40;;;0.75;;
66874;SDS011;53784;52.630;4.896;2022-07-01T09:29:22;1.50;;;0.80;;
66874;SDS011;53784;52.630;4.896;2022-07-01T09:31:50;1.58;;;0.80;;
66874;SDS011;53784;52.630;4.896;2022-07-01T09:34:15;1.60;;;0.90;;
66874;SDS011;53784;52.630;4.896;2022-07-01T09:36:46;1.70;;;1.00;;
66874;SDS011;53784;52.630;4.896;2022-07-01T09:39:16;1.70;;;1.00;;
66874;SDS011;53784;52.630;4.896;2022-07-01T09:41:42;1.70;;;1.10;;
66874;SDS011;53784;52.630;4.896;2022-07-01T09:44:08;1.80;;;1.27;;
66874;SDS011;53784;52.630;4.896;2022-07-01T09:46:33;1.80;;;1.30;;
66874;SDS011;53784;52.630;4.896;2022-07-01T09:48:59;1.90;;;1.40;;
66874;SDS011;53784;52.630;4.896;2022-07-01T09:51:25;1.90;;;1.50;;
66874;SDS011;53784;52.630;4.896;2022-07-01T09:53:50;2.00;;;1.60;;
66874;SDS011;53784;52.630;4.896;2022-07-01T09:56:16;2.00;;;1.60;;
66874;SDS011;53784;52.630;4.896;2022-07-01T09:58:42;2.10;;;1.70;;
66874;SDS011;53784;52.630;4.896;2022-07-01T10:01:13;2.03;;;1.65;;
66874;SDS011;53784;52.630;4.896;2022-07-01T10:03:38;2.00;;;1.70;;
66874;SDS011;53784;52.630;4.896;2022-07-01T10:08:36;2.08;;;1.75;;
66874;SDS011;53784;52.630;4.896;2022-07-01T10:14:07;2.00;;;1.60;;
66874;SDS011;53784;52.630;4.896;2022-07-01T10:16:34;1.90;;;1.50;;
66874;SDS011;53784;52.630;4.896;2022-07-01T10:21:45;1.80;;;1.20;;
66874;SDS011;53784;52.630;4.896;2022-07-01T10:24:12;1.50;;;0.80;;
66874;SDS011;53784;52.630;4.896;2022-07-01T10:26:38;1.40;;;0.70;;
66874;SDS011;53784;52.630;4.896;2022-07-01T10:29:03;1.50;;;0.80;;
66874;SDS011;53784;52.630;4.896;2022-07-01T10:31:36;1.60;;;0.90;;
66874;SDS011;53784;52.630;4.896;2022-07-01T10:34:02;1.67;;;0.95;;
66874;SDS011;53784;52.630;4.896;2022-07-01T10:36:29;1.70;;;1.10;;
66874;SDS011;53784;52.630;4.896;2022-07-01T10:41:29;1.88;;;1.30;;
66874;SDS011;53784;52.630;4.896;2022-07-01T10:43:55;1.60;;;0.90;;
66874;SDS011;53784;52.630;4.896;2022-07-01T10:52:07;1.00;;;0.60;;
66874;SDS011;53784;52.630;4.896;2022-07-01T10:59:40;0.88;;;0.50;;
66874;SDS011;53784;52.630;4.896;2022-07-01T11:02:11;0.60;;;0.40;;
66874;SDS011;53784;52.630;4.896;2022-07-01T11:04:37;0.40;;;0.40;;
66874;SDS011;53784;52.630;4.896;2022-07-01T11:07:03;0.50;;;0.40;;
66874;SDS011;53784;52.630;4.896;2022-07-01T11:09:29;0.60;;;0.50;;
66874;SDS011;53784;52.630;4.896;2022-07-01T11:11:54;0.30;;;0.30;;
66874;SDS011;53784;52.630;4.896;2022-07-01T11:14:19;0.60;;;0.40;;
66874;SDS011;53784;52.630;4.896;2022-07-01T11:16:44;0.40;;;0.40;;
66874;SDS011;53784;52.630;4.896;2022-07-01T11:19:10;0.30;;;0.30;;
66874;SDS011;53784;52.630;4.896;2022-07-01T11:21:35;0.40;;;0.40;;
66874;SDS011;53784;52.630;4.896;2022-07-01T11:24:00;0.40;;;0.40;;
66874;SDS011;53784;52.630;4.896;2022-07-01T11:26:26;0.30;;;0.30;;
66874;SDS011;53784;52.630;4.896;2022-07-01T11:28:51;0.50;;;0.50;;
66874;SDS011;53784;52.630;4.896;2022-07-01T11:31:26;0.50;;;0.45;;
66874;SDS011;53784;52.630;4.896;2022-07-01T11:33:52;0.80;;;0.50;;
66874;SDS011;53784;52.630;4.896;2022-07-01T11:36:17;0.93;;;0.57;;
66874;SDS011;53784;52.630;4.896;2022-07-01T11:39:01;1.17;;;0.60;;
66874;SDS011;53784;52.630;4.896;2022-07-01T11:41:45;0.70;;;0.50;;
66874;SDS011;53784;52.630;4.896;2022-07-01T11:44:11;0.60;;;0.40;;
66874;SDS011;53784;52.630;4.896;2022-07-01T11:46:36;0.70;;;0.50;;
66874;SDS011;53784;52.630;4.896;2022-07-01T11:49:01;1.00;;;0.60;;
66874;SDS011;53784;52.630;4.896;2022-07-01T11:51:36;0.90;;;0.50;;
66874;SDS011;53784;52.630;4.896;2022-07-01T11:54:01;0.70;;;0.50;;
66874;SDS011;53784;52.630;4.896;2022-07-01T11:56:28;1.00;;;0.60;;
66874;SDS011;53784;52.630;4.896;2022-07-01T11:58:54;1.37;;;0.70;;
66874;SDS011;53784;52.630;4.896;2022-07-01T12:01:24;1.25;;;0.70;;
66874;SDS011;53784;52.630;4.896;2022-07-01T12:04:04;1.50;;;0.80;;
66874;SDS011;53784;52.630;4.896;2022-07-01T12:06:32;1.60;;;0.90;;
66874;SDS011;53784;52.630;4.896;2022-07-01T12:08:58;1.60;;;0.90;;
66874;SDS011;53784;52.630;4.896;2022-07-01T12:11:24;1.60;;;1.00;;
66874;SDS011;53784;52.630;4.896;2022-07-01T12:13:51;1.60;;;0.90;;
66874;SDS011;53784;52.630;4.896;2022-07-01T12:16:17;1.70;;;0.90;;
66874;SDS011;53784;52.630;4.896;2022-07-01T12:18:55;1.70;;;0.90;;
66874;SDS011;53784;52.630;4.896;2022-07-01T12:21:25;1.60;;;0.90;;
66874;SDS011;53784;52.630;4.896;2022-07-01T12:24:08;1.48;;;0.73;;
66874;SDS011;53784;52.630;4.896;2022-07-01T12:26:34;1.50;;;0.80;;
66874;SDS011;53784;52.630;4.896;2022-07-01T12:29:00;0.90;;;0.57;;
66874;SDS011;53784;52.630;4.896;2022-07-01T12:31:25;0.80;;;0.50;;
66874;SDS011;53784;52.630;4.896;2022-07-01T12:33:51;1.00;;;0.60;;
66874;SDS011;53784;52.630;4.896;2022-07-01T12:36:17;0.88;;;0.60;;
66874;SDS011;53784;52.630;4.896;2022-07-01T12:38:42;0.60;;;0.50;;
66874;SDS011;53784;52.630;4.896;2022-07-01T12:41:27;0.50;;;0.40;;
66874;SDS011;53784;52.630;4.896;2022-07-01T12:44:00;0.47;;;0.40;;
66874;SDS011;53784;52.630;4.896;2022-07-01T12:46:26;0.47;;;0.40;;
66874;SDS011;53784;52.630;4.896;2022-07-01T12:48:56;0.40;;;0.40;;
66874;SDS011;53784;52.630;4.896;2022-07-01T12:51:28;0.40;;;0.40;;
66874;SDS011;53784;52.630;4.896;2022-07-01T12:53:54;0.30;;;0.30;;
66874;SDS011;53784;52.630;4.896;2022-07-01T12:56:23;0.50;;;0.30;;
66874;SDS011;53784;52.630;4.896;2022-07-01T13:01:16;0.30;;;0.30;;
66874;SDS011;53784;52.630;4.896;2022-07-01T13:03:42;0.40;;;0.40;;
66874;SDS011;53784;52.630;4.896;2022-07-01T13:06:07;0.20;;;0.20;;
66874;SDS011;53784;52.630;4.896;2022-07-01T13:08:32;0.20;;;0.20;;
66874;SDS011;53784;52.630;4.896;2022-07-01T13:10:58;0.20;;;0.20;;
66874;SDS011;53784;52.630;4.896;2022-07-01T13:13:23;0.20;;;0.20;;
66874;SDS011;53784;52.630;4.896;2022-07-01T13:15:49;0.10;;;0.10;;
66874;SDS011;53784;52.630;4.896;2022-07-01T13:18:14;0.10;;;0.10;;
66874;SDS011;53784;52.630;4.896;2022-07-01T13:20:40;0.10;;;0.10;;
66874;SDS011;53784;52.630;4.896;2022-07-01T13:23:06;0.15;;;0.15;;
66874;SDS011;53784;52.630;4.896;2022-07-01T13:25:32;0.20;;;0.20;;
66874;SDS011;53784;52.630;4.896;2022-07-01T13:27:57;0.20;;;0.20;;
66874;SDS011;53784;52.630;4.896;2022-07-01T13:30:23;0.10;;;0.10;;
66874;SDS011;53784;52.630;4.896;2022-07-01T13:32:49;0.20;;;0.20;;
66874;SDS011;53784;52.630;4.896;2022-07-01T13:35:18;0.15;;;0.15;;
66874;SDS011;53784;52.630;4.896;2022-07-01T13:37:45;0.10;;;0.10;;
66874;SDS011;53784;52.630;4.896;2022-07-01T13:40:10;0.20;;;0.20;;
66874;SDS011;53784;52.630;4.896;2022-07-01T13:42:36;0.10;;;0.10;;
66874;SDS011;53784;52.630;4.896;2022-07-01T13:45:02;0.20;;;0.20;;
66874;SDS011;53784;52.630;4.896;2022-07-01T13:47:28;0.10;;;0.10;;
66874;SDS011;53784;52.630;4.896;2022-07-01T13:49:53;0.10;;;0.10;;
66874;SDS011;53784;52.630;4.896;2022-07-01T13:52:18;0.10;;;0.10;;
66874;SDS011;53784;52.630;4.896;2022-07-01T13:54:44;0.10;;;0.10;;
66874;SDS011;53784;52.630;4.896;2022-07-01T13:57:09;0.10;;;0.10;;
66874;SDS011;53784;52.630;4.896;2022-07-01T13:59:34;0.10;;;0.10;;
66874;SDS011;53784;52.630;4.896;2022-07-01T14:02:00;0.13;;;0.13;;
66874;SDS011;53784;52.630;4.896;2022-07-01T14:04:25;0.10;;;0.10;;
66874;SDS011;53784;52.630;4.896;2022-07-01T14:06:50;0.10;;;0.10;;
66874;SDS011;53784;52.630;4.896;2022-07-01T14:09:16;0.10;;;0.10;;
66874;SDS011;53784;52.630;4.896;2022-07-01T14:11:41;0.20;;;0.20;;
66874;SDS011;53784;52.630;4.896;2022-07-01T14:14:07;0.10;;;0.10;;
66874;SDS011;53784;52.630;4.896;2022-07-01T14:16:32;0.10;;;0.10;;
66874;SDS011;53784;52.630;4.896;2022-07-01T14:18:58;0.20;;;0.20;;
66874;SDS011;53784;52.630;4.896;2022-07-01T14:21:23;0.10;;;0.10;;
66874;SDS011;53784;52.630;4.896;2022-07-01T14:23:48;0.10;;;0.10;;
66874;SDS011;53784;52.630;4.896;2022-07-01T14:26:14;0.10;;;0.10;;
66874;SDS011;53784;52.630;4.896;2022-07-01T14:28:39;0.10;;;0.10;;
66874;SDS011;53784;52.630;4.896;2022-07-01T14:31:06;0.17;;;0.17;;
66874;SDS011;53784;52.630;4.896;2022-07-01T14:33:31;0.20;;;0.20;;
66874;SDS011;53784;52.630;4.896;2022-07-01T14:35:57;0.20;;;0.20;;
66874;SDS011;53784;52.630;4.896;2022-07-01T14:38:22;0.20;;;0.20;;
66874;SDS011;53784;52.630;4.896;2022-07-01T14:40:48;0.10;;;0.10;;
66874;SDS011;53784;52.630;4.896;2022-07-01T14:43:13;0.30;;;0.30;;
66874;SDS011;53784;52.630;4.896;2022-07-01T14:45:38;0.10;;;0.10;;
66874;SDS011;53784;52.630;4.896;2022-07-01T14:48:04;0.10;;;0.10;;
66874;SDS011;53784;52.630;4.896;2022-07-01T14:50:29;0.10;;;0.10;;
66874;SDS011;53784;52.630;4.896;2022-07-01T14:52:55;0.20;;;0.20;;
66874;SDS011;53784;52.630;4.896;2022-07-01T14:55:20;0.20;;;0.20;;
66874;SDS011;53784;52.630;4.896;2022-07-01T14:57:46;0.10;;;0.10;;
66874;SDS011;53784;52.630;4.896;2022-07-01T15:00:11;0.20;;;0.20;;
66874;SDS011;53784;52.630;4.896;2022-07-01T15:02:37;0.20;;;0.20;;
66874;SDS011;53784;52.630;4.896;2022-07-01T15:05:03;0.10;;;0.10;;
66874;SDS011;53784;52.630;4.896;2022-07-01T15:07:28;0.10;;;0.10;;
66874;SDS011;53784;52.630;4.896;2022-07-01T15:09:54;0.10;;;0.10;;